sensor_id;sensor_type;location;lat;lon;timestamp;P1;durP1;ratioP1;P2;durP2;ratioP2
11334;SDS011;5722;42.620;23.374;2023-04-24T00:01:21;8.90;;;7.00;;
11334;SDS011;5722;42.620;23.374;2023-04-24T00:04:01;7.93;;;7.13;;
11334;SDS011;5722;42.620;23.374;2023-04-24T00:06:34;9.13;;;8.10;;
11334;SDS011;5722;42.620;23.374;2023-04-24T00:11:57;8.77;;;7.67;;
11334;SDS011;5722;42.620;23.374;2023-04-24T00:14:35;7.50;;;6.70;;
11334;SDS011;5722;42.620;23.374;2023-04-24T00:17:26;8.13;;;7.33;;
11334;SDS011;5722;42.620;23.374;2023-04-24T00:28:28;11.87;;;6.20;;
11334;SDS011;5722;42.620;23.374;2023-04-24T00:31:03;6.93;;;6.23;;
11334;SDS011;5722;42.620;23.374;2023-04-24T00:33:34;7.13;;;6.10;;
11334;SDS011;5722;42.620;23.374;2023-04-24T00:36:18;9.37;;;6.17;;
11334;SDS011;5722;42.620;23.374;2023-04-24T00:38:52;7.77;;;6.00;;
11334;SDS011;5722;42.620;23.374;2023-04-24T00:41:37;9.93;;;6.50;;
11334;SDS011;5722;42.620;23.374;2023-04-24T00:46:54;6.87;;;5.57;;
11334;SDS011;5722;42.620;23.374;2023-04-24T00:49:23;7.27;;;6.30;;
11334;SDS011;5722;42.620;23.374;2023-04-24T00:52:02;8.63;;;7.23;;
11334;SDS011;5722;42.620;23.374;2023-04-24T00:54:38;9.07;;;7.23;;
11334;SDS011;5722;42.620;23.374;2023-04-24T00:57:10;11.20;;;7.73;;
11334;SDS011;5722;42.620;23.374;2023-04-24T00:59:59;14.63;;;8.30;;
11334;SDS011;5722;42.620;23.374;2023-04-24T01:02:45;9.97;;;8.40;;
11334;SDS011;5722;42.620;23.374;2023-04-24T01:05:34;9.63;;;8.53;;
11334;SDS011;5722;42.620;23.374;2023-04-24T01:08:09;11.73;;;8.57;;
11334;SDS011;5722;42.620;23.374;2023-04-24T01:10:47;10.97;;;8.53;;
11334;SDS011;5722;42.620;23.374;2023-04-24T01:13:37;14.03;;;8.40;;
11334;SDS011;5722;42.620;23.374;2023-04-24T01:16:21;10.00;;;8.30;;
11334;SDS011;5722;42.620;23.374;2023-04-24T01:19:04;13.57;;;8.27;;
11334;SDS011;5722;42.620;23.374;2023-04-24T01:21:39;9.07;;;8.13;;
11334;SDS011;5722;42.620;23.374;2023-04-24T01:24:19;11.40;;;9.07;;
11334;SDS011;5722;42.620;23.374;2023-04-24T01:26:58;12.13;;;8.67;;
11334;SDS011;5722;42.620;23.374;2023-04-24T01:29:30;11.40;;;8.80;;
11334;SDS011;5722;42.620;23.374;2023-04-24T01:32:00;10.20;;;9.07;;
11334;SDS011;5722;42.620;23.374;2023-04-24T01:34:42;11.47;;;9.90;;
11334;SDS011;5722;42.620;23.374;2023-04-24T01:37:15;14.80;;;9.60;;
11334;SDS011;5722;42.620;23.374;2023-04-24T01:39:56;10.87;;;9.50;;
11334;SDS011;5722;42.620;23.374;2023-04-24T01:42:43;15.23;;;9.93;;
11334;SDS011;5722;42.620;23.374;2023-04-24T01:45:21;11.83;;;10.40;;
11334;SDS011;5722;42.620;23.374;2023-04-24T01:48:05;13.40;;;10.87;;
11334;SDS011;5722;42.620;23.374;2023-04-24T01:50:39;12.67;;;10.97;;
11334;SDS011;5722;42.620;23.374;2023-04-24T01:53:09;12.77;;;10.20;;
11334;SDS011;5722;42.620;23.374;2023-04-24T01:55:48;11.43;;;9.77;;
11334;SDS011;5722;42.620;23.374;2023-04-24T01:58:17;12.33;;;9.57;;
11334;SDS011;5722;42.620;23.374;2023-04-24T02:00:49;11.67;;;9.40;;
11334;SDS011;5722;42.620;23.374;2023-04-24T02:06:36;11.60;;;10.50;;
11334;SDS011;5722;42.620;23.374;2023-04-24T02:09:31;12.33;;;10.93;;
11334;SDS011;5722;42.620;23.374;2023-04-24T02:17:44;17.10;;;11.63;;
11334;SDS011;5722;42.620;23.374;2023-04-24T02:20:19;16.80;;;11.33;;
11334;SDS011;5722;42.620;23.374;2023-04-24T02:22:53;12.50;;;11.20;;
11334;SDS011;5722;42.620;23.374;2023-04-24T02:25:28;14.37;;;11.60;;
11334;SDS011;5722;42.620;23.374;2023-04-24T02:28:09;13.27;;;11.80;;
11334;SDS011;5722;42.620;23.374;2023-04-24T02:30:54;16.70;;;12.20;;
11334;SDS011;5722;42.620;23.374;2023-04-24T02:36:52;12.67;;;10.23;;
11334;SDS011;5722;42.620;23.374;2023-04-24T02:39:35;13.07;;;10.77;;
11334;SDS011;5722;42.620;23.374;2023-04-24T02:42:20;11.83;;;10.60;;
11334;SDS011;5722;42.620;23.374;2023-04-24T02:45:05;13.40;;;10.77;;
11334;SDS011;5722;42.620;23.374;2023-04-24T02:47:58;14.53;;;10.60;;
11334;SDS011;5722;42.620;23.374;2023-04-24T02:50:52;13.83;;;11.03;;
11334;SDS011;5722;42.620;23.374;2023-04-24T02:53:41;14.10;;;10.17;;
11334;SDS011;5722;42.620;23.374;2023-04-24T02:56:18;12.47;;;9.93;;
11334;SDS011;5722;42.620;23.374;2023-04-24T02:58:55;12.33;;;9.97;;
11334;SDS011;5722;42.620;23.374;2023-04-24T03:01:30;12.93;;;10.10;;
11334;SDS011;5722;42.620;23.374;2023-04-24T03:04:05;12.23;;;9.43;;
11334;SDS011;5722;42.620;23.374;2023-04-24T03:06:51;12.90;;;10.57;;
11334;SDS011;5722;42.620;23.374;2023-04-24T03:18:04;10.63;;;9.50;;
11334;SDS011;5722;42.620;23.374;2023-04-24T03:20:50;11.53;;;10.07;;
11334;SDS011;5722;42.620;23.374;2023-04-24T03:23:28;10.77;;;9.30;;
11334;SDS011;5722;42.620;23.374;2023-04-24T03:26:10;12.70;;;9.13;;
11334;SDS011;5722;42.620;23.374;2023-04-24T03:29:02;10.37;;;9.20;;
11334;SDS011;5722;42.620;23.374;2023-04-24T03:31:52;12.67;;;9.50;;
11334;SDS011;5722;42.620;23.374;2023-04-24T03:40:33;11.30;;;8.93;;
11334;SDS011;5722;42.620;23.374;2023-04-24T03:43:04;9.40;;;8.40;;
11334;SDS011;5722;42.620;23.374;2023-04-24T03:45:37;10.27;;;9.27;;
11334;SDS011;5722;42.620;23.374;2023-04-24T03:48:17;12.13;;;9.83;;
11334;SDS011;5722;42.620;23.374;2023-04-24T03:51:07;9.97;;;8.87;;
11334;SDS011;5722;42.620;23.374;2023-04-24T03:53:42;12.23;;;8.77;;
11334;SDS011;5722;42.620;23.374;2023-04-24T03:59:10;11.90;;;8.47;;
11334;SDS011;5722;42.620;23.374;2023-04-24T04:04:35;12.00;;;8.27;;
11334;SDS011;5722;42.620;23.374;2023-04-24T04:07:28;10.47;;;8.57;;
11334;SDS011;5722;42.620;23.374;2023-04-24T04:10:23;13.43;;;8.47;;
11334;SDS011;5722;42.620;23.374;2023-04-24T04:13:17;10.83;;;7.97;;
11334;SDS011;5722;42.620;23.374;2023-04-24T09:17:27;8.73;;;5.95;;
11334;SDS011;5722;42.620;23.374;2023-04-24T09:26:03;6.38;;;5.03;;
11334;SDS011;5722;42.620;23.374;2023-04-24T09:28:49;8.65;;;5.40;;
11334;SDS011;5722;42.620;23.374;2023-04-24T09:31:45;6.85;;;5.18;;
11334;SDS011;5722;42.620;23.374;2023-04-24T11:03:37;4.25;;;3.25;;
11334;SDS011;5722;42.620;23.374;2023-04-24T11:06:28;4.25;;;3.35;;
11334;SDS011;5722;42.620;23.374;2023-04-24T11:09:33;4.45;;;3.40;;
11334;SDS011;5722;42.620;23.374;2023-04-24T11:12:14;7.35;;;3.75;;
11334;SDS011;5722;42.620;23.374;2023-04-24T11:17:57;5.60;;;3.65;;
11334;SDS011;5722;42.620;23.374;2023-04-24T11:34:45;30.33;;;3.33;;
11334;SDS011;5722;42.620;23.374;2023-04-24T11:37:17;16.13;;;2.85;;
11334;SDS011;5722;42.620;23.374;2023-04-24T11:40:02;9.68;;;2.80;;
11334;SDS011;5722;42.620;23.374;2023-04-24T11:42:52;3.90;;;2.60;;
11334;SDS011;5722;42.620;23.374;2023-04-24T11:45:36;3.47;;;2.90;;
11334;SDS011;5722;42.620;23.374;2023-04-24T15:00:22;4.43;;;3.97;;
11334;SDS011;5722;42.620;23.374;2023-04-24T15:02:51;6.00;;;3.95;;
11334;SDS011;5722;42.620;23.374;2023-04-24T15:05:35;5.72;;;3.78;;
11334;SDS011;5722;42.620;23.374;2023-04-24T15:08:12;4.55;;;3.83;;
11334;SDS011;5722;42.620;23.374;2023-04-24T15:10:54;6.35;;;4.00;;
11334;SDS011;5722;42.620;23.374;2023-04-24T15:13:32;5.65;;;4.18;;
11334;SDS011;5722;42.620;23.374;2023-04-24T15:27:05;8.07;;;5.50;;
11334;SDS011;5722;42.620;23.374;2023-04-24T15:29:49;15.65;;;11.88;;
11334;SDS011;5722;42.620;23.374;2023-04-24T15:32:38;6.22;;;4.93;;
11334;SDS011;5722;42.620;23.374;2023-04-24T15:35:09;8.32;;;6.15;;
11334;SDS011;5722;42.620;23.374;2023-04-24T15:37:53;6.28;;;5.63;;
11334;SDS011;5722;42.620;23.374;2023-04-24T15:40:23;10.82;;;7.47;;
11334;SDS011;5722;42.620;23.374;2023-04-24T16:02:33;6.88;;;5.57;;
11334;SDS011;5722;42.620;23.374;2023-04-24T17:50:13;15.67;;;14.07;;
11334;SDS011;5722;42.620;23.374;2023-04-24T17:52:43;18.23;;;16.20;;
11334;SDS011;5722;42.620;23.374;2023-04-24T17:55:24;19.70;;;16.27;;
11334;SDS011;5722;42.620;23.374;2023-04-24T18:21:18;14.03;;;12.63;;
11334;SDS011;5722;42.620;23.374;2023-04-24T18:23:49;14.17;;;12.47;;
11334;SDS011;5722;42.620;23.374;2023-04-24T18:26:37;20.33;;;14.10;;
11334;SDS011;5722;42.620;23.374;2023-04-24T18:29:06;18.77;;;12.63;;
11334;SDS011;5722;42.620;23.374;2023-04-24T18:31:42;13.73;;;12.40;;
11334;SDS011;5722;42.620;23.374;2023-04-24T18:34:28;13.03;;;11.30;;
11334;SDS011;5722;42.620;23.374;2023-04-24T18:43:06;12.60;;;11.30;;
11334;SDS011;5722;42.620;23.374;2023-04-24T18:45:47;13.53;;;11.40;;
11334;SDS011;5722;42.620;23.374;2023-04-24T18:48:31;14.27;;;12.33;;
11334;SDS011;5722;42.620;23.374;2023-04-24T18:53:37;14.20;;;12.80;;
11334;SDS011;5722;42.620;23.374;2023-04-24T18:56:25;13.80;;;12.40;;
11334;SDS011;5722;42.620;23.374;2023-04-24T20:34:38;2.60;;;1.57;;
11334;SDS011;5722;42.620;23.374;2023-04-24T20:37:34;3.43;;;1.60;;
11334;SDS011;5722;42.620;23.374;2023-04-24T20:40:18;1.70;;;1.40;;
11334;SDS011;5722;42.620;23.374;2023-04-24T20:42:54;1.30;;;1.20;;
11334;SDS011;5722;42.620;23.374;2023-04-24T20:46:03;2.13;;;1.30;;
11334;SDS011;5722;42.620;23.374;2023-04-24T20:48:38;1.20;;;1.10;;
11334;SDS011;5722;42.620;23.374;2023-04-24T20:59:43;0.90;;;0.90;;
11334;SDS011;5722;42.620;23.374;2023-04-24T21:02:12;1.17;;;1.00;;
11334;SDS011;5722;42.620;23.374;2023-04-24T21:04:47;4.47;;;1.20;;
11334;SDS011;5722;42.620;23.374;2023-04-24T21:07:15;2.57;;;1.10;;
11334;SDS011;5722;42.620;23.374;2023-04-24T21:09:45;1.60;;;1.33;;
11334;SDS011;5722;42.620;23.374;2023-04-24T21:12:17;1.37;;;1.27;;
11334;SDS011;5722;42.620;23.374;2023-04-24T21:14:47;1.67;;;1.40;;
11334;SDS011;5722;42.620;23.374;2023-04-24T21:17:16;4.83;;;1.50;;
11334;SDS011;5722;42.620;23.374;2023-04-24T21:19:59;1.40;;;1.20;;
11334;SDS011;5722;42.620;23.374;2023-04-24T21:22:29;1.47;;;1.13;;
11334;SDS011;5722;42.620;23.374;2023-04-24T21:25:01;1.40;;;1.30;;
11334;SDS011;5722;42.620;23.374;2023-04-24T21:27:35;2.77;;;1.50;;
11334;SDS011;5722;42.620;23.374;2023-04-24T21:30:09;2.10;;;1.50;;
11334;SDS011;5722;42.620;23.374;2023-04-24T21:32:38;2.27;;;1.40;;
11334;SDS011;5722;42.620;23.374;2023-04-24T21:35:15;1.83;;;1.50;;
11334;SDS011;5722;42.620;23.374;2023-04-24T21:37:44;3.73;;;1.50;;
11334;SDS011;5722;42.620;23.374;2023-04-24T21:40:15;3.20;;;1.43;;
11334;SDS011;5722;42.620;23.374;2023-04-24T21:42:47;1.97;;;1.70;;
11334;SDS011;5722;42.620;23.374;2023-04-24T21:45:30;1.90;;;1.60;;
11334;SDS011;5722;42.620;23.374;2023-04-24T21:48:01;2.33;;;1.70;;
11334;SDS011;5722;42.620;23.374;2023-04-24T21:50:32;2.23;;;1.50;;
11334;SDS011;5722;42.620;23.374;2023-04-24T21:53:03;1.60;;;1.40;;
11334;SDS011;5722;42.620;23.374;2023-04-24T21:55:37;3.07;;;1.60;;
11334;SDS011;5722;42.620;23.374;2023-04-24T21:58:10;3.17;;;1.90;;
11334;SDS011;5722;42.620;23.374;2023-04-24T22:00:40;3.37;;;1.73;;
11334;SDS011;5722;42.620;23.374;2023-04-24T22:03:08;4.47;;;1.97;;
11334;SDS011;5722;42.620;23.374;2023-04-24T22:05:38;2.50;;;2.30;;
11334;SDS011;5722;42.620;23.374;2023-04-24T22:08:13;2.83;;;2.40;;
11334;SDS011;5722;42.620;23.374;2023-04-24T22:10:41;3.10;;;2.23;;
11334;SDS011;5722;42.620;23.374;2023-04-24T22:13:10;4.10;;;2.40;;
11334;SDS011;5722;42.620;23.374;2023-04-24T22:15:42;2.93;;;2.17;;
11334;SDS011;5722;42.620;23.374;2023-04-24T22:18:21;2.53;;;2.23;;
11334;SDS011;5722;42.620;23.374;2023-04-24T22:21:01;2.33;;;2.00;;
11334;SDS011;5722;42.620;23.374;2023-04-24T22:23:30;2.00;;;1.90;;
11334;SDS011;5722;42.620;23.374;2023-04-24T22:26:12;2.30;;;1.93;;
11334;SDS011;5722;42.620;23.374;2023-04-24T22:28:46;3.20;;;1.87;;
11334;SDS011;5722;42.620;23.374;2023-04-24T22:31:15;3.43;;;1.90;;
11334;SDS011;5722;42.620;23.374;2023-04-24T22:33:47;1.77;;;1.67;;
11334;SDS011;5722;42.620;23.374;2023-04-24T22:36:18;2.30;;;2.10;;
11334;SDS011;5722;42.620;23.374;2023-04-24T22:38:46;3.80;;;2.10;;
11334;SDS011;5722;42.620;23.374;2023-04-24T22:41:20;2.40;;;2.20;;
11334;SDS011;5722;42.620;23.374;2023-04-24T22:43:47;2.63;;;2.10;;
11334;SDS011;5722;42.620;23.374;2023-04-24T22:46:17;3.47;;;2.17;;
11334;SDS011;5722;42.620;23.374;2023-04-24T22:48:48;2.20;;;2.00;;
11334;SDS011;5722;42.620;23.374;2023-04-24T22:51:17;4.03;;;2.40;;
11334;SDS011;5722;42.620;23.374;2023-04-24T22:53:53;2.70;;;2.10;;
11334;SDS011;5722;42.620;23.374;2023-04-24T22:56:27;3.50;;;3.20;;
11334;SDS011;5722;42.620;23.374;2023-04-24T22:59:06;3.90;;;3.10;;
11334;SDS011;5722;42.620;23.374;2023-04-24T23:01:43;5.70;;;3.33;;
11334;SDS011;5722;42.620;23.374;2023-04-24T23:04:13;4.67;;;3.03;;
11334;SDS011;5722;42.620;23.374;2023-04-24T23:06:50;3.20;;;2.90;;
11334;SDS011;5722;42.620;23.374;2023-04-24T23:09:20;3.83;;;3.00;;
11334;SDS011;5722;42.620;23.374;2023-04-24T23:12:00;5.70;;;2.87;;
11334;SDS011;5722;42.620;23.374;2023-04-24T23:14:32;3.17;;;2.83;;
11334;SDS011;5722;42.620;23.374;2023-04-24T23:17:07;4.07;;;3.40;;
11334;SDS011;5722;42.620;23.374;2023-04-24T23:19:44;3.67;;;3.30;;
11334;SDS011;5722;42.620;23.374;2023-04-24T23:22:15;4.50;;;3.73;;
11334;SDS011;5722;42.620;23.374;2023-04-24T23:24:42;4.27;;;3.87;;
11334;SDS011;5722;42.620;23.374;2023-04-24T23:27:18;5.30;;;4.67;;
11334;SDS011;5722;42.620;23.374;2023-04-24T23:30:03;5.13;;;4.63;;
11334;SDS011;5722;42.620;23.374;2023-04-24T23:32:34;8.43;;;5.33;;
11334;SDS011;5722;42.620;23.374;2023-04-24T23:35:03;6.27;;;5.67;;
11334;SDS011;5722;42.620;23.374;2023-04-24T23:37:39;6.20;;;5.60;;
11334;SDS011;5722;42.620;23.374;2023-04-24T23:40:14;6.57;;;5.97;;
11334;SDS011;5722;42.620;23.374;2023-04-24T23:42:58;7.00;;;6.30;;
11334;SDS011;5722;42.620;23.374;2023-04-24T23:45:30;7.43;;;6.70;;
11334;SDS011;5722;42.620;23.374;2023-04-24T23:48:05;7.03;;;6.33;;
11334;SDS011;5722;42.620;23.374;2023-04-24T23:50:32;6.63;;;5.93;;
11334;SDS011;5722;42.620;23.374;2023-04-24T23:53:05;9.27;;;6.23;;
11334;SDS011;5722;42.620;23.374;2023-04-24T23:55:37;8.80;;;7.23;;
11334;SDS011;5722;42.620;23.374;2023-04-24T23:58:18;7.00;;;6.30;;
